Time;durP1;ratioP1;P1;durP2;ratioP2;P2;SDS_P1;SDS_P2;PMS_P1;PMS_P2;Temp;Humidity;BMP_temperature;BMP_pressure;BME280_temperature;BME280_humidity;BME280_pressure;Samples;Min_cycle;Max_cycle;Signal;HPM_P1;HPM_P2
2021/01/01 00:08:11;;;;;;;13.43;4.60;;;;;;;4.01;100.00;101290.19;4952557;29;20091;-93
2021/01/01 00:10:55;;;;;;;11.65;4.32;;;;;;;4.01;100.00;101285.00;5015364;23;20092;-91
2021/01/01 00:13:24;;;;;;;11.80;4.05;;;;;;;4.02;100.00;101281.50;4936247;29;20349;-94
2021/01/01 00:19:49;;;;;;;11.30;4.10;;;;;;;3.98;100.00;101285.19;4950615;29;20042;-94
2021/01/01 00:22:24;;;;;;;11.93;4.38;;;;;;;4.00;100.00;101288.53;4975356;23;20026;-93
2021/01/01 00:36:14;;;;;;;;;;;;;;;4.01;100.00;101292.81;4855968;29;20516;-93
2021/01/01 01:11:32;;;;;;;;;;;;;;;4.08;100.00;101340.84;4948562;29;19925;-95
2021/01/01 01:17:07;;;;;;;;;;;;;;;4.06;100.00;101343.53;4963381;23;20279;-94
2021/01/01 01:19:50;;;;;;;;;;;;;;;4.07;100.00;101332.22;4949440;29;19917;-94
2021/01/01 01:22:17;;;;;;;;;;;;;;;4.08;100.00;101335.66;4946390;29;20377;-93
2021/01/01 01:28:06;;;;;;;;;;;;;;;4.10;100.00;101350.25;4959786;23;20360;-93
2021/01/01 01:30:33;;;;;;;;;;;;;;;4.09;100.00;101343.38;4932209;29;19939;-95
2021/01/01 01:36:04;;;;;;;;;;;;;;;4.08;100.00;101344.28;4948540;29;19921;-94
2021/01/01 01:38:33;;;;;;;;;;;;;;;4.08;100.00;101349.47;4946628;29;19966;-95
2021/01/01 01:40:59;;;;;;;;;;;;;;;4.09;100.00;101348.56;4947130;29;20413;-91
2021/01/01 02:28:46;;;;;;;;;;;;;;;3.95;99.15;101397.81;4967745;29;20069;-91
2021/01/01 02:35:21;;;;;;;;;;;;;;;3.89;98.93;101403.28;4952901;29;20396;-94
2021/01/01 02:38:05;;;;;;;;;;;;;;;3.88;98.87;101405.06;4964892;23;20258;-92
2021/01/01 02:50:35;;;;;;;;;;;;;;;3.89;98.65;101413.69;4968870;29;19921;-93
2021/01/01 02:53:12;;;;;;;;;;;;;;;3.87;98.46;101408.56;4966072;29;19949;-92
2021/01/01 02:56:19;;;;;;;;;;;;;;;3.88;98.56;101412.84;4949640;29;19978;-93
2021/01/01 03:02:14;;;;;;;;;;;;;;;3.89;98.64;101418.88;4926824;29;19912;-93
2021/01/01 03:46:16;;;;;;;;;;;;;;;3.64;98.17;101440.06;5105963;23;19925;-94
2021/01/01 03:48:44;;;;;;;;;;;;;;;3.66;98.14;101437.38;5232823;23;20413;-94
2021/01/01 03:51:14;;;;;;;;;;;;;;;3.63;98.08;101440.13;4958200;29;19917;-93
2021/01/01 03:56:17;;;;;;;;;;;;;;;3.62;98.13;101452.25;4970875;28;19925;-93
2021/01/01 04:01:27;;;;;;;;;;;;;;;3.64;98.02;101455.63;5045854;23;20421;-95
2021/01/01 04:04:07;;;;;;;;;;;;;;;3.62;97.87;101457.44;4954913;29;19917;-94
2021/01/01 04:09:12;;;;;;;;;;;;;;;3.65;97.88;101466.84;5086217;23;20029;-94
2021/01/01 04:14:08;;;;;;;;;;;;;;;3.70;97.85;101464.84;5119378;23;19929;-94
2021/01/01 04:19:07;;;;;;;;;;;;;;;3.73;97.72;101475.06;5082547;23;19982;-93
2021/01/01 04:21:37;;;;;;;;;;;;;;;3.72;97.69;101470.78;4957192;29;19914;-93
2021/01/01 04:24:17;;;;;;;;;;;;;;;3.73;97.60;101475.06;4955526;29;19906;-93
2021/01/01 04:26:47;;;;;;;;;;;;;;;3.74;97.61;101476.75;4937289;29;20386;-94
2021/01/01 04:29:20;;;;;;;;;;;;;;;3.75;97.48;101476.66;4974363;23;19924;-93
2021/01/01 04:31:48;;;;;;;;;;;;;;;3.74;97.58;101477.59;4945017;29;20346;-93
2021/01/01 04:34:15;;;;;;;;;;;;;;;3.74;97.47;101471.56;5012401;23;19933;-94
2021/01/01 04:36:46;;;;;;;;;;;;;;;3.74;97.58;101476.75;4954789;29;20365;-93
2021/01/01 04:39:13;;;;;;;;;;;;;;;3.73;97.38;101475.91;4954032;29;19910;-93
2021/01/01 04:41:40;;;;;;;;;;;;;;;3.72;97.27;101473.38;4954418;29;19935;-94
2021/01/01 04:44:06;;;;;;;;;;;;;;;3.71;97.19;101474.31;4953841;29;20289;-93
2021/01/01 04:49:02;;;;;;;;;;;;;;;3.69;97.24;101478.75;5033578;23;20254;-95
2021/01/01 04:51:32;;;;;;;;;;;;;;;3.66;97.21;101477.16;4954249;29;20309;-94
2021/01/01 04:56:52;;;;;;;;;;;;;;;3.65;97.04;101474.63;5134507;23;19922;-95
2021/01/01 04:59:20;;;;;;;;;;;;;;;3.67;97.10;101480.56;4946176;29;19914;-94
2021/01/01 05:01:47;;;;;;;;;;;;;;;3.65;96.94;101482.41;4950101;29;19977;-95
2021/01/01 05:04:13;;;;;;;;;;;;;;;3.61;97.03;101481.69;4952105;29;19910;-92
2021/01/01 05:06:40;;;;;;;;;;;;;;;3.53;96.99;101484.69;4934496;29;19914;-95
2021/01/01 05:09:06;;;;;;;;;;;;;;;3.43;96.73;101480.88;4948459;29;19914;-93
2021/01/01 05:11:33;;;;;;;;;;;;;;;3.35;96.76;101484.75;4950377;29;20266;-94
2021/01/01 05:14:00;;;;;;;;;;;;;;;3.29;96.77;101481.53;4950238;29;20394;-93
2021/01/01 05:16:27;;;;;;;;;;;;;;;3.23;96.98;101487.03;4948771;29;20366;-94
2021/01/01 05:18:59;;;;;;;;;;;;;;;3.19;96.85;101492.44;4951044;29;20322;-94
2021/01/01 05:21:37;;;;;;;;;;;;;;;3.12;96.79;101483.28;4960200;29;19910;-94
2021/01/01 05:24:16;;;;;;;;;;;;;;;3.05;96.77;101487.91;4962414;28;19942;-94
2021/01/01 05:26:54;;;;;;;;;;;;;;;2.99;96.90;101486.44;4973953;23;19919;-94
2021/01/01 05:29:29;;;;;;;;;;;;;;;2.95;96.78;101481.47;4963908;29;19929;-93
2021/01/01 05:32:02;;;;;;;;;;;;;;;2.90;96.96;101488.63;4995082;23;20373;-94
2021/01/01 05:34:44;;;;;;;;;;;;;;;2.86;97.08;101481.94;4969968;29;20321;-94
2021/01/01 05:37:11;;;;;;;;;;;;;;;2.80;96.86;101492.56;4949257;29;19926;-94
2021/01/01 05:39:41;;;;;;;;;;;;;;;2.76;96.86;101491.88;4951282;29;19953;-94
2021/01/01 05:42:08;;;;;;;;;;;;;;;2.73;96.96;101496.38;4951891;29;20285;-93
2021/01/01 05:44:36;;;;;;;;;;;;;;;2.69;96.92;101495.66;4928616;29;20318;-94
2021/01/01 05:47:03;;;;;;;;;;;;;;;2.65;96.98;101500.13;4948818;29;19981;-93
2021/01/01 05:49:32;;;;;;;;;;;;;;;2.63;96.92;101489.00;4951244;29;19911;-94
2021/01/01 05:52:04;;;;;;;;;;;;;;;2.59;96.71;101499.56;4949605;29;19914;-94
2021/01/01 05:54:31;;;;;;;;;;;;;;;2.56;96.91;101497.13;4949832;29;20313;-94
2021/01/01 05:56:57;;;;;;;;;;;;;;;2.52;96.84;101498.16;4949671;29;20273;-95
2021/01/01 05:59:27;;;;;;;;;;;;;;;2.49;96.95;101493.13;4951279;29;19910;-93
2021/01/01 06:01:55;;;;;;;;;;;;;;;2.43;96.81;101503.78;4960416;29;19934;-93
2021/01/01 06:04:32;;;;;;;;;;;;;;;2.39;97.03;101508.25;4956864;29;20433;-92
2021/01/01 06:07:00;;;;;;;;;;;;;;;2.37;97.07;101516.09;4950662;29;20259;-93
2021/01/01 06:09:35;;;;;;;;;;;;;;;2.36;96.97;101508.34;4951516;29;19917;-92
2021/01/01 06:12:07;;;;;;;;;;;;;;;2.33;97.09;101509.34;4950011;29;20369;-93
2021/01/01 06:14:41;;;;;;;;;;;;;;;2.31;97.20;101510.31;4951016;29;20246;-95
2021/01/01 06:17:10;;;;;;;;;;;;;;;2.28;97.18;101515.63;4934932;29;20412;-94
2021/01/01 06:19:54;;;;;;;;;;;;;;;2.27;97.12;101519.13;4951720;29;20266;-95
2021/01/01 06:22:29;;;;;;;;;;;;;;;2.23;97.02;101518.44;4950999;29;19925;-94
2021/01/01 06:24:58;;;;;;;;;;;;;;;2.20;96.99;101523.72;4980241;23;19943;-93
2021/01/01 06:30:34;;;;;;;;;;;;;;;2.14;97.04;101528.34;4968677;29;19934;-94
2021/01/01 06:36:04;;;;;;;;;;;;;;;2.08;97.07;101534.63;4967862;29;19966;-94
2021/01/01 06:38:36;;;;;;;;;;;;;;;2.06;96.96;101541.63;4951289;29;19939;-94
2021/01/01 06:41:02;;;;;;;;;;;;;;;2.02;97.24;101534.88;4951467;29;19918;-93
2021/01/01 06:43:48;;;;;;;;;;;;;;;1.98;97.05;101541.09;4951047;29;20318;-94
2021/01/01 06:46:14;;;;;;;;;;;;;;;1.97;97.15;101542.00;4950432;29;19910;-93
2021/01/01 06:48:40;;;;;;;;;;;;;;;1.95;97.27;101543.81;4950446;29;19968;-94
2021/01/01 06:51:16;;;;;;;;;;;;;;;1.92;97.13;101544.78;4949693;29;19910;-93
2021/01/01 06:53:44;;;;;;;;;;;;;;;1.90;97.25;101538.84;4950378;29;20285;-93
2021/01/01 06:56:11;;;;;;;;;;;;;;;1.89;97.26;101550.06;4951369;29;19914;-92
2021/01/01 06:58:38;;;;;;;;;;;;;;;1.87;97.23;101549.28;4951111;29;19978;-93
2021/01/01 07:01:16;;;;;;;;;;;;;;;1.87;97.31;101551.88;4950735;29;20261;-93
2021/01/01 07:03:55;;;;;;;;;;;;;;;1.85;97.52;101552.84;4968795;29;19969;-94
2021/01/01 07:06:21;;;;;;;;;;;;;;;1.84;97.47;101562.38;4955685;28;19906;-92
2021/01/01 07:08:47;;;;;;;;;;;;;;;1.82;97.35;101568.50;4963349;28;19914;-93
2021/01/01 07:11:25;;;;;;;;;;;;;;;1.80;97.27;101571.16;4955577;29;19921;-92
2021/01/01 07:13:51;;;;;;;;;;;;;;;1.79;97.44;101577.25;4957912;29;20033;-93
2021/01/01 07:16:26;;;;;;;;;;;;;;;1.77;97.34;101582.47;4956850;29;20354;-93
2021/01/01 07:19:00;;;;;;;;;;;;;;;1.75;97.45;101584.28;4969055;29;19930;-93
2021/01/01 07:21:28;;;;;;;;;;;;;;;1.75;97.27;101584.28;4955629;29;19911;-93
2021/01/01 07:23:56;;;;;;;;;;;;;;;1.75;97.62;101581.69;4957222;29;20285;-92
2021/01/01 07:26:27;;;;;;;;;;;;;;;1.74;97.41;101586.94;4961630;28;19982;-93
2021/01/01 07:28:56;;;;;;;;;;;;;;;1.71;97.54;101595.63;4956806;29;19918;-93
2021/01/01 07:31:28;;;;;;;;;;;;;;;1.70;97.68;101591.38;4935884;29;20358;-94
2021/01/01 07:33:55;;;;;;;;;;;;;;;1.69;97.55;101597.44;4955342;29;19911;-93
2021/01/01 07:36:24;;;;;;;;;;;;;;;1.67;97.62;101591.50;4953211;29;20003;-93
2021/01/01 07:38:54;;;;;;;;;;;;;;;1.67;97.63;101595.84;4944022;29;20378;-94
2021/01/01 07:41:28;;;;;;;;;;;;;;;1.65;97.46;101588.16;5180988;23;19918;-94
2021/01/01 07:43:56;;;;;;;;;;;;;;;1.65;97.64;101597.66;4961832;28;19902;-94
2021/01/01 07:46:32;;;;;;;;;;;;;;;1.62;97.68;101603.78;4966862;29;19907;-93
2021/01/01 07:49:14;;;;;;;;;;;;;;;1.62;97.66;101602.94;4967803;29;19933;-94
2021/01/01 07:51:57;;;;;;;;;;;;;;;1.59;97.46;101608.25;5029346;23;19926;-93
2021/01/01 07:54:49;;;;;;;;;;;;;;;1.57;97.75;101613.44;5203985;23;20060;-94
2021/01/01 07:57:42;;;;;;;;;;;;;;;1.56;97.60;101611.78;4967207;28;19941;-94
2021/01/01 08:00:37;;;;;;;;;;;;;;;1.56;97.61;101614.34;4961609;29;19914;-94
2021/01/01 08:03:05;;;;;;;;;;;;;;;1.57;97.85;101615.19;4952338;29;20443;-94
2021/01/01 08:08:27;;;;;;;;;;;;;;;1.55;97.89;101623.00;5083020;23;19918;-94
2021/01/01 08:10:57;;;;;;;;;;;;;;;1.53;97.74;101627.41;4987259;23;19944;-95
2021/01/01 08:13:44;;;;;;;;;;;;;;;1.52;97.82;101623.13;4952658;29;20277;-94
2021/01/01 08:16:11;;;;;;;;;;;;;;;1.52;97.87;101628.31;4952996;29;20340;-95
2021/01/01 08:18:38;;;;;;;;;;;;;;;1.51;97.96;101621.47;4952065;29;19910;-95
2021/01/01 08:21:06;;;;;;;;;;;;;;;1.49;97.96;101626.69;5080181;23;19926;-94
2021/01/01 08:23:41;;;;;;;;;;;;;;;1.49;98.08;101620.69;4949003;29;20284;-94
2021/01/01 08:26:11;;;;;;;;;;;;;;;1.47;97.98;101623.34;4950091;29;19907;-95
2021/01/01 08:28:38;;;;;;;;;;;;;;;1.46;98.13;101632.00;4949386;29;19917;-95
2021/01/01 08:31:06;;;;;;;;;;;;;;;1.45;98.03;101635.47;4945146;29;20350;-96
2021/01/01 08:33:33;;;;;;;;;;;;;;;1.45;97.89;101638.06;4946119;29;20261;-95
2021/01/01 08:36:00;;;;;;;;;;;;;;;1.45;97.79;101634.63;4945332;29;20354;-95
2021/01/01 08:38:26;;;;;;;;;;;;;;;1.45;98.18;101648.41;4949518;29;19910;-94
2021/01/01 08:40:53;;;;;;;;;;;;;;;1.45;98.09;101645.81;4945052;29;19917;-95
2021/01/01 08:43:19;;;;;;;;;;;;;;;1.46;98.14;101659.59;4944596;29;20317;-95
2021/01/01 08:45:45;;;;;;;;;;;;;;;1.45;98.09;101660.50;4945730;29;20289;-95
2021/01/01 08:48:11;;;;;;;;;;;;;;;1.45;98.17;101665.66;4949716;29;19917;-95
2021/01/01 08:50:43;;;;;;;;;;;;;;;1.44;98.06;101666.56;4947536;29;20413;-94
2021/01/01 08:53:10;;;;;;;;;;;;;;;1.43;98.09;101670.06;4955190;29;19914;-96
2021/01/01 08:55:38;;;;;;;;;;;;;;;1.39;98.22;101676.22;4958324;29;19977;-94
2021/01/01 08:58:15;;;;;;;;;;;;;;;1.38;98.17;101671.94;4953545;29;19970;-95
2021/01/01 09:00:43;;;;;;;;;;;;;;;1.34;98.36;101666.06;4957115;29;19965;-94
2021/01/01 09:03:09;;;;;;;;;;;;;;;1.31;98.11;101678.25;4943720;29;19946;-95
2021/01/01 09:05:47;;;;;;;;;;;;;;;1.33;98.09;101679.03;4946250;29;19945;-95
2021/01/01 09:08:18;;;;;;;;;;;;;;;1.30;98.26;101684.34;4949570;29;19917;-95
2021/01/01 09:10:47;;;;;;;;;;;;;;;1.31;98.10;101681.69;4952545;29;20309;-95
2021/01/01 09:13:13;;;;;;;;;;;;;;;1.29;98.36;101683.50;4952152;29;20381;-95
2021/01/01 09:15:39;;;;;;;;;;;;;;;1.29;98.23;101682.66;4949208;29;20362;-93
2021/01/01 09:18:10;;;;;;;;;;;;;;;1.28;98.24;101675.78;4950290;29;19918;-96
2021/01/01 09:20:42;;;;;;;;;;;;;;;1.29;98.10;101687.81;4969211;29;20297;-95
2021/01/01 09:23:10;;;;;;;;;;;;;;;1.29;98.31;101685.22;4952347;29;20091;-95
2021/01/01 09:25:42;;;;;;;;;;;;;;;1.29;98.29;101680.06;4949747;29;20333;-94
2021/01/01 09:28:16;;;;;;;;;;;;;;;1.29;98.33;101690.41;4951711;29;20313;-95
2021/01/01 09:30:51;;;;;;;;;;;;;;;1.31;98.28;101683.44;4978893;23;19946;-94
2021/01/01 09:36:40;;;;;;;;;;;;;;;1.32;98.35;101685.13;5008761;23;19925;-96
2021/01/01 09:39:12;;;;;;;;;;;;;;;1.34;98.37;101699.66;4943852;29;20362;-95
2021/01/01 09:41:39;;;;;;;;;;;;;;;1.36;98.45;101694.44;4934683;29;20353;-94
2021/01/01 09:44:06;;;;;;;;;;;;;;;1.36;98.61;101691.84;4949735;29;20345;-94
2021/01/01 09:49:39;;;;;;;;;;;;;;;1.42;98.63;101694.19;4978221;28;19939;-93
2021/01/01 09:52:08;;;;;;;;;;;;;;;1.45;98.62;101694.09;5043781;23;20127;-94
2021/01/01 09:54:37;;;;;;;;;;;;;;;1.47;98.75;101700.06;4969400;29;19915;-94
2021/01/01 10:03:15;;;;;;;;;;;;;;;1.54;98.51;101703.22;4933966;23;19926;-92
2021/01/01 10:05:49;;;;;;;;;;;;;;;1.58;98.60;101705.66;4966629;29;20361;-93
2021/01/01 10:08:16;;;;;;;;;;;;;;;1.64;98.59;101709.75;4948282;29;19910;-92
2021/01/01 10:10:46;;;;;;;;;;;;;;;1.67;98.89;101710.47;4948806;29;19974;-95
2021/01/01 10:13:12;;;;;;;;;;;;;;;1.72;98.72;101705.94;4949810;29;20342;-93
2021/01/01 10:15:39;;;;;;;;;;;;;;;1.76;98.65;101712.72;4949500;29;19910;-94
2021/01/01 10:18:12;;;;;;;;;;;;;;;1.83;98.68;101710.72;4948484;29;20408;-93
2021/01/01 10:20:38;;;;;;;;;;;;;;;1.90;98.79;101708.75;4934036;29;19940;-94
2021/01/01 10:23:04;;;;;;;;;;;;;;;1.95;98.83;101719.75;4945376;29;19911;-92
2021/01/01 10:25:35;;;;;;;;;;;;;;;2.00;98.81;101718.66;4959559;28;20269;-95
2021/01/01 10:28:01;;;;;;;;;;;;;;;2.07;98.72;101721.88;4993936;23;19923;-94
2021/01/01 10:30:31;;;;;;;;;;;;;;;2.14;98.85;101725.88;4942135;29;20318;-93
2021/01/01 10:36:29;;;;;;;;;;;;;;;2.35;98.84;101716.38;4968284;29;19917;-92
2021/01/01 10:39:03;;;;;;;;;;;;;;;2.44;98.64;101730.72;4950767;29;20386;-92
2021/01/01 10:41:38;;;;;;;;;;;;;;;2.52;98.52;101731.22;4935463;29;20326;-92
2021/01/01 10:52:31;;;;;;;;;;;;;;;2.77;98.61;101726.72;5014980;23;19920;-94
2021/01/01 10:55:33;;;;;;;;;;;;;;;2.85;98.55;101729.84;4951454;29;19946;-91
2021/01/01 10:58:10;;;;;;;;;;;;;;;2.89;98.70;101720.19;5006976;23;20269;-92
2021/01/01 11:04:04;;;;;;;;;;;;;;;2.93;98.52;101726.91;4946569;29;20073;-94
2021/01/01 11:06:55;;;;;;;;;;;;;;;2.97;98.52;101731.88;4945881;29;19910;-92
2021/01/01 11:09:42;;;;;;;;;;;;;;;3.03;98.52;101729.94;4946480;29;19911;-94
2021/01/01 11:12:09;;;;;;;;;;;;;;;3.08;98.46;101718.47;4928328;29;19942;-94
2021/01/01 12:19:51;;;;;;;;;;;;;;;3.40;98.31;101727.41;4950213;29;19989;-95
2021/01/01 12:22:17;;;;;;;;;;;;;;;3.41;98.27;101720.44;4945422;29;19910;-95
2021/01/01 12:24:49;;;;;;;;;;;;;;;3.41;98.16;101728.22;4931438;29;19965;-95
2021/01/01 12:27:21;;;;;;;;;;;;;;;3.43;98.25;101732.44;4936518;28;20305;-95
2021/01/01 12:29:52;;;;;;;;;;;;;;;3.43;98.23;101729.84;4484013;23;15313308;-95
2021/01/01 12:32:19;;;;;;;;;;;;;;;3.45;98.27;101725.44;4949627;29;20315;-96
2021/01/01 12:34:50;;;;;;;;;;;;;;;3.47;98.25;101721.03;5101676;23;20247;-95
2021/01/01 12:37:24;;;;;;;;;;;;;;;3.49;98.24;101727.00;4932731;29;20267;-95
2021/01/01 12:43:25;;;;;;;;;;;;;;;3.53;98.23;101718.16;4950111;29;19911;-95
2021/01/01 12:46:09;;;;;;;;;;;;;;;3.55;98.29;101716.31;4877159;29;20315;-94
2021/01/01 12:48:40;;;;;;;;;;;;;;;3.57;98.25;101717.09;4890685;29;20421;-95
2021/01/01 12:54:02;;;;;;;;;;;;;;;3.60;98.45;101716.09;5032171;23;19932;-94
2021/01/01 12:56:45;;;;;;;;;;;;;;;3.63;98.20;101722.91;4948779;29;20278;-96
2021/01/01 12:59:55;;;;;;;;;;;;;;;3.63;98.35;101718.56;4951387;29;20250;-96
2021/01/01 13:17:29;;;;;;;;;;;;;;;3.87;98.35;101716.56;4964552;28;20000;-94
2021/01/01 13:20:07;;;;;;;;;;;;;;;3.86;98.14;101714.91;4949667;29;20293;-95
2021/01/01 13:22:38;;;;;;;;;;;;;;;3.85;98.18;101719.25;4936429;29;20358;-96
2021/01/01 13:25:05;;;;;;;;;;;;;;;3.88;97.95;101715.66;4952552;29;19982;-94
2021/01/01 13:27:36;;;;;;;;;;;;;;;3.88;98.19;101708.72;5014159;23;20314;-96
2021/01/01 13:30:03;;;;;;;;;;;;;;;3.91;98.07;101705.13;4936748;29;20281;-95
2021/01/01 13:32:41;;;;;;;;;;;;;;;3.94;98.02;101709.31;4970381;29;20277;-95
2021/01/01 13:35:19;;;;;;;;;;;;;;;3.96;97.84;101705.78;5003278;23;20361;-96
2021/01/01 13:37:47;;;;;;;;;;;;;;;3.97;97.76;101707.44;4977278;23;19953;-96
2021/01/01 14:07:23;;;;;;;;;;;;;;;4.18;96.52;101702.97;4973976;29;19941;-94
2021/01/01 14:09:50;;;;;;;;;;;;;;;4.20;96.60;101688.16;4955537;29;20453;-95
2021/01/01 14:12:18;;;;;;;;;;;;;;;4.21;96.43;101702.81;4957305;29;19978;-94
2021/01/01 14:14:44;;;;;;;;;;;;;;;4.20;96.23;101694.19;4961793;28;19906;-95
2021/01/01 14:17:13;;;;;;;;;;;;;;;4.20;96.02;101694.19;4960887;29;20366;-94
2021/01/01 14:19:45;;;;;;;;;;;;;;;4.20;95.85;101701.13;4962616;28;19906;-95
2021/01/01 14:22:33;;;;;;;;;;;;;;;4.21;95.55;101701.06;4960411;29;19911;-96
2021/01/01 14:25:00;;;;;;;;;;;;;;;4.24;95.44;101704.41;4952293;29;19910;-96
2021/01/01 14:30:37;;;;;;;;;;;;;;;4.29;95.31;101712.84;4973533;29;19996;-95
2021/01/01 14:36:01;;;;;;;;;;;;;;;4.29;94.90;101711.06;5332665;23;19936;-93
2021/01/01 14:38:43;;;;;;;;;;;;;;;4.28;94.95;101706.81;4979476;28;19969;-94
2021/01/01 14:41:42;;;;;;;;;;;;;;;4.30;94.86;101699.78;4937755;29;19922;-93
2021/01/01 14:44:31;;;;;;;;;;;;;;;4.29;94.66;101712.84;4922586;29;19899;-93
2021/01/01 14:51:11;;;;;;;;;;;;;;;4.26;94.52;101723.34;4968522;29;19929;-94
2021/01/01 14:54:11;;;;;;;;;;;;;;;4.26;94.44;101733.75;4966187;29;19914;-93
2021/01/01 14:56:46;;;;;;;;;;;;;;;4.24;94.26;101731.22;4962715;29;20278;-95
2021/01/01 14:59:13;;;;;;;;;;;;;;;4.22;94.17;101739.09;4947971;29;20357;-95
2021/01/01 15:01:41;;;;;;;;;;;;;;;4.22;94.25;101733.91;4949298;29;20406;-94
2021/01/01 15:04:07;;;;;;;;;;;;;;;4.21;94.20;101740.00;4932623;29;19914;-92
2021/01/01 15:06:34;;;;;;;;;;;;;;;4.21;94.04;101745.19;4947956;29;19922;-94
2021/01/01 15:09:06;;;;;;;;;;;;;;;4.22;94.17;101749.47;4966832;29;20247;-95
2021/01/01 15:11:35;;;;;;;;;;;;;;;4.25;93.95;101753.69;4980477;23;20329;-94
2021/01/01 15:14:02;;;;;;;;;;;;;;;4.24;93.93;101748.56;4953265;29;19910;-94
2021/01/01 15:16:30;;;;;;;;;;;;;;;4.22;93.81;101751.22;4955527;29;19960;-94
2021/01/01 15:22:07;;;;;;;;;;;;;;;4.16;93.69;101759.31;4972497;29;19921;-94
2021/01/01 15:24:35;;;;;;;;;;;;;;;4.15;93.80;101758.50;4953018;29;19910;-94
2021/01/01 15:27:06;;;;;;;;;;;;;;;4.12;93.84;101760.41;4954299;29;19939;-93
2021/01/01 15:29:33;;;;;;;;;;;;;;;4.10;93.82;101760.47;4955595;29;20368;-94
2021/01/01 15:32:02;;;;;;;;;;;;;;;4.09;93.60;101763.13;4958550;29;19973;-96
2021/01/01 15:34:34;;;;;;;;;;;;;;;4.07;93.73;101765.78;4978404;28;19925;-95
2021/01/01 15:37:02;;;;;;;;;;;;;;;4.04;93.70;101768.53;4975800;23;19946;-95
2021/01/01 15:39:31;;;;;;;;;;;;;;;4.05;93.68;101764.19;5028316;23;20332;-96
2021/01/01 15:42:00;;;;;;;;;;;;;;;4.04;93.72;101771.13;5023936;23;19948;-95
2021/01/01 15:47:36;;;;;;;;;;;;;;;3.97;93.87;101782.72;4969937;29;19917;-94
2021/01/01 15:50:04;;;;;;;;;;;;;;;3.94;93.77;101788.03;4951503;29;20332;-95
2021/01/01 15:52:30;;;;;;;;;;;;;;;3.88;93.80;101786.56;4948755;29;20358;-95
2021/01/01 15:55:04;;;;;;;;;;;;;;;3.84;93.79;101792.00;4951792;29;20392;-94
2021/01/01 16:00:38;;;;;;;;;;;;;;;3.75;94.04;101793.25;4969727;29;19918;-95
2021/01/01 16:03:07;;;;;;;;;;;;;;;3.71;93.97;101796.88;4938452;29;19921;-94
2021/01/01 16:05:34;;;;;;;;;;;;;;;3.66;94.17;101792.84;4952298;29;20409;-95
2021/01/01 16:08:03;;;;;;;;;;;;;;;3.61;94.21;101791.25;4951027;29;19914;-95
2021/01/01 16:10:34;;;;;;;;;;;;;;;3.57;94.37;101796.66;4954470;29;19910;-95
2021/01/01 16:13:04;;;;;;;;;;;;;;;3.54;94.19;101799.41;4953651;29;19910;-96
2021/01/01 16:15:41;;;;;;;;;;;;;;;3.53;94.28;101797.72;4956684;29;20411;-95
2021/01/01 16:18:09;;;;;;;;;;;;;;;3.52;94.46;101802.06;4954493;29;20289;-95
2021/01/01 16:23:46;;;;;;;;;;;;;;;3.48;94.68;101810.06;4975439;28;19925;-96
2021/01/01 16:26:14;;;;;;;;;;;;;;;3.45;94.48;101808.41;4958557;29;19910;-96
2021/01/01 16:28:47;;;;;;;;;;;;;;;3.42;94.51;101811.16;4958336;29;19914;-96
2021/01/01 16:31:21;;;;;;;;;;;;;;;3.39;94.57;101808.69;4955785;29;20321;-95
2021/01/01 16:33:58;;;;;;;;;;;;;;;3.35;94.62;101816.69;4957723;29;19946;-95
2021/01/01 16:43:27;;;;;;;;;;;;;;;3.22;94.64;101821.56;584860;23;20202;-94
2021/01/01 16:46:22;;;;;;;;;;;;;;;3.18;94.79;101833.81;4955198;29;20266;-96
2021/01/01 16:49:18;;;;;;;;;;;;;;;3.15;94.84;101836.50;4976664;29;20103;-96
2021/01/01 16:51:45;;;;;;;;;;;;;;;3.10;94.90;101835.88;4958593;29;19918;-96
2021/01/01 16:54:25;;;;;;;;;;;;;;;3.08;94.68;101842.03;4963892;28;19906;-96
2021/01/01 16:56:55;;;;;;;;;;;;;;;3.04;94.79;101835.31;4957242;29;20319;-96
2021/01/01 16:59:22;;;;;;;;;;;;;;;3.00;94.88;101843.22;4955749;29;20238;-95
2021/01/01 17:01:49;;;;;;;;;;;;;;;2.97;94.85;101832.94;4955808;29;19911;-95
2021/01/01 17:04:22;;;;;;;;;;;;;;;2.92;94.85;101834.91;4955692;29;20338;-95
2021/01/01 17:07:06;;;;;;;;;;;;;;;2.89;94.92;101839.38;4955907;29;19910;-95
2021/01/01 17:09:34;;;;;;;;;;;;;;;2.85;94.97;101843.84;4953697;29;19910;-96
2021/01/01 17:18:20;;;;;;;;;;;;;;;2.73;95.03;101846.94;4970674;28;19930;-95
2021/01/01 17:20:57;;;;;;;;;;;;;;;2.70;95.29;101844.47;4962592;28;19966;-94
2021/01/01 18:51:48;;;;;;;;;;;;;;;2.21;95.58;101918.88;5309338;23;20727;31
2021/01/01 18:54:43;;;;;;;;;;;;;;;2.17;95.51;101917.28;4957658;28;19947;-96
2021/01/01 19:06:36;;;;;;;;;;;;;;;2.05;95.87;101928.97;4929624;29;19942;-96
2021/01/01 19:09:10;;;;;;;;;;;;;;;2.03;95.89;101927.31;4961085;28;19921;-96
2021/01/01 19:14:59;;;;;;;;;;;;;;;1.99;95.95;101933.50;4954793;29;19991;-96
2021/01/01 19:17:35;;;;;;;;;;;;;;;1.97;96.01;101940.47;4958599;29;19910;-96
2021/01/01 19:20:08;;;;;;;;;;;;;;;1.96;96.05;101936.19;4958733;29;19914;-96
2021/01/01 19:22:45;;;;;;;;;;;;;;;1.94;96.15;101935.41;5108848;23;19938;-96
2021/01/01 19:31:56;;;;;;;;;;;;;;;1.91;96.16;101940.72;5417346;22;19906;-96
2021/01/01 19:40:31;;;;;;;;;;;;;;;1.87;96.17;101945.13;5047351;22;19982;-96
2021/01/01 19:43:29;;;;;;;;;;;;;;;1.85;96.37;101946.06;4975851;29;19909;-95
2021/01/01 19:46:02;;;;;;;;;;;;;;;1.83;96.43;101945.28;4875427;29;19916;-96
2021/01/01 19:55:00;;;;;;;;;;;;;;;1.75;96.47;101954.19;5841267;23;19933;-96
2021/01/01 19:57:46;;;;;;;;;;;;;;;1.73;96.48;101952.50;5152161;23;19918;-96
2021/01/01 20:03:26;;;;;;;;;;;;;;;1.71;96.44;101951.72;4998690;28;19973;-96
2021/01/01 20:06:23;;;;;;;;;;;;;;;1.70;96.36;101950.88;4997623;28;19977;-95
2021/01/01 20:09:11;;;;;;;;;;;;;;;1.70;96.49;101957.81;4980992;28;19973;-94
2021/01/01 20:14:24;;;;;;;;;;;;;;;1.65;96.29;101976.06;5055369;23;19916;-95
2021/01/01 20:16:52;;;;;;;;;;;;;;;1.64;96.63;101978.72;4958420;28;19915;-95
2021/01/01 20:19:21;;;;;;;;;;;;;;;1.63;96.54;101974.44;4943952;29;19990;-94
2021/01/01 20:21:50;;;;;;;;;;;;;;;1.63;96.37;101982.19;4940974;29;19966;-95
2021/01/01 20:24:17;;;;;;;;;;;;;;;1.61;96.47;101981.41;4937421;29;20388;-94
2021/01/01 20:26:44;;;;;;;;;;;;;;;1.57;96.69;101993.56;4937098;29;20470;-95
2021/01/01 20:29:12;;;;;;;;;;;;;;;1.53;96.54;101992.00;4936253;29;20380;-93
2021/01/01 20:31:40;;;;;;;;;;;;;;;1.52;96.60;101994.63;4938132;29;19910;-95
2021/01/01 20:34:17;;;;;;;;;;;;;;;1.50;96.51;101998.13;4935599;29;19917;-94
2021/01/01 20:36:48;;;;;;;;;;;;;;;1.47;96.51;101999.97;4936112;29;20433;-95
2021/01/01 20:39:36;;;;;;;;;;;;;;;1.45;96.59;101999.16;4951975;29;19917;-94
2021/01/01 20:42:33;;;;;;;;;;;;;;;1.42;96.70;102000.13;4935995;29;20322;-94
2021/01/01 20:45:07;;;;;;;;;;;;;;;1.40;96.70;102001.03;4936215;29;19978;-94
2021/01/01 20:48:42;;;;;;;;;;;;;;;1.38;96.62;102000.25;4941526;29;20007;-95
2021/01/01 20:52:03;;;;;;;;;;;;;;;1.35;96.62;102000.34;4953299;29;19910;-94
2021/01/01 20:56:45;;;;;;;;;;;;;;;1.28;96.63;102002.31;4952280;29;20389;-93
2021/01/01 20:59:13;;;;;;;;;;;;;;;1.23;96.81;102009.34;4937860;29;19911;-95
2021/01/01 21:04:43;;;;;;;;;;;;;;;1.18;96.63;102006.91;4955166;29;19934;-96
2021/01/01 21:44:49;;;;;;;;;;;;;;;1.00;96.72;102038.50;4998629;28;19924;-95
2021/01/01 21:47:39;;;;;;;;;;;;;;;0.99;96.75;102028.22;4997581;28;19909;-94
2021/01/01 21:50:16;;;;;;;;;;;;;;;0.97;97.04;102036.00;4983359;28;19921;-96
2021/01/01 21:53:06;;;;;;;;;;;;;;;0.97;96.99;102032.56;4941039;28;19934;-96
2021/01/01 21:55:33;;;;;;;;;;;;;;;0.96;96.93;102033.47;4974157;28;20376;-94
2021/01/01 21:58:01;;;;;;;;;;;;;;;0.95;96.84;102032.63;4974482;28;19920;-95
2021/01/01 22:00:27;;;;;;;;;;;;;;;0.94;96.86;102038.66;4973739;28;20357;-95
2021/01/01 22:02:54;;;;;;;;;;;;;;;0.90;96.94;102032.75;4973941;28;20292;-96
2021/01/01 22:05:21;;;;;;;;;;;;;;;0.89;96.99;102040.53;4974963;28;20006;-96
2021/01/01 22:07:49;;;;;;;;;;;;;;;0.85;96.95;102038.94;4976261;28;19910;-95
2021/01/01 22:10:16;;;;;;;;;;;;;;;0.83;96.88;102043.31;4977237;28;20256;-96
2021/01/01 22:12:43;;;;;;;;;;;;;;;0.80;96.93;102044.25;4975374;28;19910;-95
2021/01/01 22:15:09;;;;;;;;;;;;;;;0.78;97.05;102047.75;4991471;22;19925;-95